• Join FlightAware (Why Join?)
  • Login
  • US Flag 
09:46PM EDT


 

Airport Tracker/Info


-or-


 

Live Flight TrackerFlight Track Log ✈ FSR411 ✈ 09-Feb-2014 ✈ KLAS - KCMI

Flight Track Log - Related Links

Times and Time Zones

All times are in EST time to prevent confusion due to time zone crossing. See the FSR411 flight status page for this flight to view local times or setup timezone preferences in your user account.

Time Position Orientation Groundspeed Altitude Reporting Facility
EST Latitude Longitude Course Direction KTS MPH feet Rate Location/Type
12:14PM 36.0767 -115.2506 302° West 205 236 7,100  Level Los Angeles Center
12:15PM 36.1019 -115.3011 302° West 235 270 9,600 3,060 Climbing Los Angeles Center
12:15PM 36.1142 -115.3047 347° North 253 291 10,200 3,240 Climbing Los Angeles Center
12:16PM 36.1683 -115.2756 23° Northeast 269 310 13,600 3,420 Climbing Los Angeles Center
12:17PM 36.2019 -115.1456 72° East 342 394 17,500 3,000 Climbing Los Angeles Center
12:19PM 36.1981 -114.8569 81° East 413 475 23,000 2,520 Climbing Los Angeles Center
12:20PM 36.1981 -114.7081 90° East 431 496 25,300 2,040 Climbing Los Angeles Center
12:21PM 36.1950 -114.5497 91° East 454 522 27,300 1,680 Climbing Los Angeles Center
12:23PM 36.1985 -114.2980 62° Northeast  Level FlightAware Approximate
12:23PM 36.1942 -114.2169 62° Northeast 484 557 31,000  Level Los Angeles Center
12:24PM 36.2569 -114.0333 67° East 479 551 33,200 1,920 Climbing Los Angeles Center
12:25PM 36.3097 -113.8831 66° East 476 548 35,000 1,680 Climbing Los Angeles Center
12:26PM 36.3692 -113.7028 68° East 473 544 36,700 1,260 Climbing Los Angeles Center
12:27PM 36.4192 -113.5506 68° East 476 548 37,700 900 Climbing Los Angeles Center
12:29PM 36.4681 -113.3978 68° East 476 548 38,800 960 Climbing Los Angeles Center
12:30PM 36.5267 -113.2158 68° East 480 552 40,000 660 Climbing Los Angeles Center
12:32PM 36.6342 -112.8817 68° East 479 551 41,000 180 Climbing Los Angeles Center
12:34PM 36.7475 -112.5244 68° East 510 587 41,000  Level Denver Center
12:35PM 36.7892 -112.3906 69° East 521 600 41,000  Level Los Angeles Center
12:36PM 36.8417 -112.2239 68° East 521 600 41,000  Level Los Angeles Center
12:37PM 36.8933 -112.0550 69° East 524 603 41,000  Level Los Angeles Center
12:38PM 36.9558 -111.8542 69° East 520 598 41,000  Level Los Angeles Center
12:39PM 37.0078 -111.6844 69° East 527 606 41,000  Level Los Angeles Center
12:40PM 37.0683 -111.4814 69° East 524 603 41,000  Level Denver Center
12:41PM 37.1319 -111.2772 69° East 525 604 41,000  Level Denver Center
12:42PM 37.1819 -111.1078 70° East 521 600 41,000  Level Denver Center
12:43PM 37.2331 -110.9383 69° East 523 602 41,000  Level Denver Center
12:44PM 37.2828 -110.7697 70° East 519 597 41,000  Level Denver Center
12:45PM 37.3333 -110.5997 69° East 520 598 41,000  Level Denver Center
12:46PM 37.3831 -110.4297 70° East 520 598 41,000  Level Denver Center
12:47PM 37.4431 -110.2244 70° East 523 602 41,000  Level Denver Center
12:48PM 37.4908 -110.0569 70° East 521 600 41,000  Level Denver Center
12:50PM 37.5386 -109.8928 70° East 521 600 41,000  Level Denver Center
12:51PM 37.5933 -109.7000 70° East 522 601 41,000  Level Denver Center
12:53PM 37.6933 -109.3442 70° East 517 595 41,000  Level Denver Center
12:54PM 37.7397 -109.1800 70° East 517 595 41,000  Level Denver Center
12:55PM 37.7939 -108.9872 70° East 520 598 41,000  Level Denver Center
12:57PM 37.8714 -108.6161 76° East 526 605 41,000  Level Denver Center
12:58PM 37.9050 -108.4414 76° East 530 610 41,000  Level Denver Center
12:59PM 37.9447 -108.2392 76° East 530 610 41,000  Level Denver Center
01:02PM 38.0522 -107.6861 75° East 532 612 41,000  Level Denver Center
01:03PM 38.0911 -107.4825 76° East 536 617 41,000  Level Denver Center
01:04PM 38.1247 -107.3039 76° East 541 623 41,000  Level Denver Center
01:05PM 38.1569 -107.1347 76° East 544 626 41,000  Level Denver Center
01:06PM 38.1986 -106.9081 77° East 548 631 41,000  Level Denver Center
01:07PM 38.2297 -106.7358 77° East 543 625 41,000  Level Denver Center
01:08PM 38.2669 -106.5247 77° East 548 631 41,000  Level Denver Center
01:10PM 38.3350 -106.1422 78° East 542 624 41,000  Level Denver Center
01:11PM 38.3664 -105.9636 77° East 539 620 41,000  Level Denver Center
01:13PM 38.4317 -105.5836 79° East 531 611 41,000  Level Denver Center
01:14PM 38.4628 -105.4014 78° East 528 608 41,000  Level Denver Center
01:15PM 38.4931 -105.2181 78° East 532 612 41,000  Level Denver Center
01:16PM 38.5303 -104.9961 78° East 535 616 41,000  Level Denver Center
01:17PM 38.5600 -104.8192 78° East 520 598 41,000  Level Denver Center
01:18PM 38.5889 -104.6408 78° East 517 595 41,000  Level Denver Center
01:21PM 38.6542 -104.2328 78° East 540 621 41,000  Level Denver Center
01:22PM 38.6831 -104.0456 79° East 545 627 41,000  Level Denver Center
01:23PM 38.7117 -103.8611 79° East 546 628 41,000  Level Denver Center
01:25PM 38.7803 -103.4003 79° East 552 635 41,000  Level Kansas City Center
01:26PM 38.8067 -103.2364 78° East 556 640 41,000  Level Denver Center
01:27PM 38.8358 -103.0431 79° East 556 640 41,000  Level Denver Center
01:29PM 38.8992 -102.5889 80° East 559 643 41,000  Level Kansas City Center
01:30PM 38.9242 -102.4314 78° East 559 643 41,000  Level Denver Center
01:31PM 38.9500 -102.2419 80° East 562 647 41,000  Level Denver Center
01:32PM 38.9806 -102.0203 80° East 565 650 41,000  Level Denver Center
01:33PM 39.0064 -101.8306 80° East 564 649 41,000  Level Denver Center
01:34PM 39.0369 -101.6094 80° East 561 646 41,000  Level Denver Center
01:36PM 39.0956 -101.1653 80° East 557 641 41,000  Level Kansas City Center
01:37PM 39.1242 -100.9450 80° East 555 639 41,000  Level Kansas City Center
01:38PM 39.1489 -100.7553 80° East 558 642 41,000  Level Kansas City Center
01:39PM 39.1661 -100.6147 81° East 561 646 41,000  Level Denver Center
01:40PM 39.1939 -100.3969 81° East 555 639 41,000  Level Denver Center
01:41PM 39.2158 -100.2078 81° East 557 641 41,000  Level Denver Center
01:44PM 39.2744 -99.7172 81° East 555 639 41,000  Level Kansas City Center
01:44PM 39.2900 -99.5864 81° East 551 634 41,000  Level Denver Center
01:45PM 39.3108 -99.4014 82° East 546 628 41,000  Level Denver Center
01:46PM 39.3350 -99.1853 82° East 546 628 41,000  Level Denver Center
01:48PM 39.3800 -98.7906 81° East 542 624 41,000  Level Denver Center
01:50PM 39.3994 -98.5969 83° East 543 625 41,000  Level Denver Center
01:51PM 39.4283 -98.3264 82° East 543 625 41,000  Level Kansas City Center
01:52PM 39.4481 -98.1372 82° East 542 624 41,000  Level Kansas City Center
01:55PM 39.5067 -97.5511 83° East 545 627 41,000  Level Kansas City Center
01:56PM 39.5261 -97.3567 83° East 546 628 41,000  Level Kansas City Center
01:57PM 39.5494 -97.1231 83° East 550 633 41,000  Level Kansas City Center
01:58PM 39.5678 -96.9281 83° East 548 631 41,000  Level Kansas City Center
01:59PM 39.5853 -96.7364 83° East 548 631 41,000  Level Kansas City Center
02:00PM 39.6047 -96.5186 83° East 543 625 41,000  Level Kansas City Center
02:03PM 39.6553 -95.9283 83° East 545 627 41,000  Level Kansas City Center
02:04PM 39.6706 -95.7403 84° East 546 628 41,000  Level Kansas City Center
02:05PM 39.6881 -95.5181 84° East 549 632 41,000  Level Kansas City Center
02:06PM 39.7031 -95.3275 84° East 551 634 41,000  Level Kansas City Center
02:08PM 39.7339 -94.9136 84° East 551 634 41,000  Level Kansas City Center
02:09PM 39.7121 -95.0497 83° East  Level FlightAware Approximate
02:09PM 39.7481 -94.7225 84° East 552 635 41,000  Level Kansas City Center
02:11PM 39.7764 -94.3244 85° East 554 638 41,000  Level Chicago Center
02:12PM 39.7939 -94.0875 84° East 554 638 41,000  Level Chicago Center
02:14PM 39.8067 -93.8906 85° East 552 635 41,000  Level Chicago Center
02:15PM 39.8181 -93.6906 86° East 556 640 41,000  Level Chicago Center
02:16PM 39.8314 -93.4917 85° East 559 643 41,000  Level Chicago Center
02:17PM 39.8475 -93.2586 85° East 554 638 41,000  Level Kansas City Center
02:18PM 39.8589 -93.0606 86° East 555 639 41,000  Level Kansas City Center
02:19PM 39.8700 -92.8625 86° East 556 640 41,000  Level Kansas City Center
02:21PM 39.8922 -92.4669 86° East 558 642 41,000 -240 Level Kansas City Center
02:22PM 39.9036 -92.2314 86° East 556 640 40,400 -900 Descending Kansas City Center
02:25PM 39.9333 -91.6350 90° East 561 646 37,500 -1,020 Descending Chicago Center
02:26PM 39.9422 -91.3992 87° East 553 636 36,200 -1,680 Descending Kansas City Center
02:28PM 39.9581 -91.0236 87° East 523 602 32,200 -1,980 Descending Kansas City Center
02:29PM 39.9675 -90.8103 87° East 541 623 30,100 -2,040 Descending Kansas City Center
02:31PM 39.9747 -90.5473 88° East  Level FlightAware Approximate
02:31PM 39.9819 -90.4150 88° East 553 636 26,100  Level Chicago Center
02:32PM 39.9892 -90.2158 87° East 550 633 24,000 -2,160 Descending Kansas City Center
02:34PM 40.0014 -89.8369 87° East 530 610 19,400 -2,280 Descending Kansas City Center
02:35PM 40.0075 -89.6236 88° East 505 581 17,000 -2,280 Descending Kansas City Center
02:36PM 40.0133 -89.4517 87° East 489 563 14,800 -2,040 Descending Kansas City Center
02:37PM 40.0172 -89.2897 88° East 465 535 12,900 -1,500 Descending Kansas City Center
02:38PM 40.0208 -89.1431 88° East 425 489 11,700 -1,200 Descending Kansas City Center
02:39PM 40.0242 -89.0039 88° East 396 456 10,500 -840 Descending Kansas City Center
02:40PM 40.0283 -88.8778 87° East 361 415 10,000 -1,080 Descending Kansas City Center
02:41PM 40.0297 -88.7444 89° East 318 366 8,300 -1,740 Descending Kansas City Center
02:42PM 40.0333 -88.6356 87° East 307 353 6,500 -1,800 Descending Kansas City Center
02:43PM 40.0353 -88.5336 89° East 295 339 4,700 -1,680 Descending Kansas City Center
02:44PM 40.0367 -88.4303 89° East 276 318 3,200 -1,500 Descending Chicago Center
02:47PM 40.0388 -88.2778 90° East  Level Estimated
02:54PM 40.0388 -88.2778 90° East  Level Estimated
02:55PM 40.0388 -88.2778 90° East  Level Estimated